Time;durP1;ratioP1;P1;durP2;ratioP2;P2;SDS_P1;SDS_P2;PMS_P1;PMS_P2;Temp;Humidity;BMP_temperature;BMP_pressure;BME280_temperature;BME280_humidity;BME280_pressure;Samples;Min_cycle;Max_cycle;Signal;HPM_P1;HPM_P2
2022/02/03 00:00:32;;;;;;;12.88;11.57;;;8.90;99.90;;;;;;4938967;28;20073;-86
2022/02/03 00:05:47;;;;;;;12.80;11.50;;;8.90;99.90;;;;;;4941842;29;20463;-87
2022/02/03 00:24:40;;;;;;;12.25;10.95;;;8.90;99.90;;;;;;4859506;29;20040;-87
2022/02/03 00:27:33;;;;;;;13.05;11.65;;;9.00;99.90;;;;;;4845636;29;20037;-86
2022/02/03 00:30:04;;;;;;;12.75;11.38;;;8.70;99.90;;;;;;4860960;29;20051;-87
2022/02/03 00:33:05;;;;;;;13.13;11.35;;;8.60;99.90;;;;;;4860718;29;20029;-87
2022/02/03 00:38:19;;;;;;;12.90;11.32;;;8.90;99.90;;;;;;4860942;29;20504;-87
2022/02/03 00:49:03;;;;;;;11.65;10.45;;;9.00;99.90;;;;;;4858986;29;20036;-87
2022/02/03 00:51:30;;;;;;;12.05;10.80;;;8.90;99.90;;;;;;4860469;29;20042;-87
2022/02/03 00:53:56;;;;;;;11.32;10.20;;;8.90;99.90;;;;;;4921981;29;20043;-87
2022/02/03 00:56:34;;;;;;;11.82;10.52;;;8.90;99.90;;;;;;4941277;29;20554;-87
2022/02/03 00:59:07;;;;;;;14.40;11.57;;;8.60;99.90;;;;;;4937800;29;20040;-87
2022/02/03 01:01:36;;;;;;;11.75;10.65;;;9.00;99.90;;;;;;4938497;29;20126;-87
2022/02/03 01:04:09;;;;;;;11.88;10.68;;;8.60;99.90;;;;;;4938334;29;20035;-87
2022/02/03 01:06:40;;;;;;;12.35;10.82;;;8.50;99.90;;;;;;4940884;29;20034;-87
2022/02/03 01:09:07;;;;;;;11.88;10.65;;;8.70;99.90;;;;;;4940606;29;20099;-87
2022/02/03 01:11:44;;;;;;;12.13;10.93;;;8.90;99.90;;;;;;4939355;29;20480;-87
2022/02/03 01:14:16;;;;;;;14.15;10.95;;;8.60;99.90;;;;;;4939177;29;20038;-87
2022/02/03 01:17:14;;;;;;;12.43;11.13;;;8.70;99.90;;;;;;4936935;29;20032;-87
2022/02/03 01:20:20;;;;;;;11.45;10.25;;;8.90;99.90;;;;;;4950731;29;20062;-87
2022/02/03 01:45:00;;;;;;;11.55;10.35;;;8.80;99.90;;;;;;4940678;29;20109;-87
2022/02/03 01:52:35;;;;;;;13.85;11.95;;;9.00;99.90;;;;;;4937519;29;20027;-87
2022/02/03 01:55:05;;;;;;;12.45;11.15;;;8.70;99.90;;;;;;4938520;29;20020;-87
2022/02/03 01:58:17;;;;;;;13.20;11.77;;;8.70;99.90;;;;;;4939735;29;20036;-87
2022/02/03 02:00:56;;;;;;;13.38;11.45;;;8.80;99.90;;;;;;4921129;29;20051;-87
2022/02/03 02:03:35;;;;;;;12.80;11.50;;;8.80;99.90;;;;;;4939556;29;20500;-87
2022/02/03 02:06:13;;;;;;;12.57;10.82;;;9.20;99.90;;;;;;4939598;29;20396;-87
2022/02/03 02:09:05;;;;;;;13.07;11.23;;;8.90;99.90;;;;;;4939582;29;20027;-87
2022/02/03 02:11:55;;;;;;;13.30;11.90;;;9.00;99.90;;;;;;4939127;29;20031;-87
2022/02/03 02:43:33;;;;;;;13.32;11.90;;;8.70;99.90;;;;;;4908491;29;20127;-87
2022/02/03 02:46:26;;;;;;;15.80;13.75;;;8.70;99.90;;;;;;4913836;29;20231;-86
2022/02/03 02:49:09;;;;;;;13.75;12.30;;;8.60;99.90;;;;;;4912800;29;20713;-87
2022/02/03 02:52:04;;;;;;;16.05;13.23;;;8.60;99.90;;;;;;4911990;29;20024;-87
2022/02/03 03:37:06;;;;;;;15.57;11.40;;;8.30;99.90;;;;;;4822790;29;20050;-87
2022/02/03 03:39:41;;;;;;;15.10;11.85;;;7.90;99.90;;;;;;4824146;29;20038;-86
2022/02/03 03:42:14;;;;;;;17.67;12.65;;;7.80;99.90;;;;;;4816026;29;20054;-87
2022/02/03 03:44:42;;;;;;;15.52;12.07;;;7.80;99.90;;;;;;4929608;29;20027;-87
2022/02/03 03:47:13;;;;;;;15.73;12.82;;;7.90;99.90;;;;;;4936145;29;20035;-87
2022/02/03 03:49:47;;;;;;;17.90;13.18;;;7.70;99.90;;;;;;4935901;29;20039;-87
2022/02/03 03:52:21;;;;;;;16.98;12.40;;;7.80;99.90;;;;;;4938556;29;20062;-87
2022/02/03 03:55:03;;;;;;;16.48;12.93;;;8.20;99.90;;;;;;4938252;29;20052;-87
2022/02/03 04:31:13;;;;;;;12.05;8.27;;;7.90;99.90;;;;;;4917081;29;20102;-87
2022/02/03 04:34:04;;;;;;;14.15;8.60;;;8.40;99.90;;;;;;4916708;29;20044;-87
2022/02/03 04:57:51;;;;;;;8.43;6.55;;;7.70;99.90;;;;;;4824052;29;20062;-86
2022/02/03 05:09:28;;;;;;;9.82;6.25;;;7.70;99.90;;;;;;4824230;29;20034;-86
2022/02/03 05:54:34;;;;;;;7.63;6.05;;;7.70;99.90;;;;;;4842183;29;20048;-86
2022/02/03 06:06:48;;;;;;;15.45;10.82;;;7.40;99.90;;;;;;4939585;29;20031;-87
2022/02/03 06:09:34;;;;;;;14.90;10.65;;;7.40;99.90;;;;;;4939889;29;20517;-87
2022/02/03 06:12:42;;;;;;;14.70;10.35;;;7.90;99.90;;;;;;4939504;29;20108;-87
2022/02/03 06:15:04;;;;;;;12.82;9.13;;;7.60;99.90;;;;;;4937646;29;20035;-87
2022/02/03 06:17:38;;;;;;;19.83;11.07;;;7.40;99.90;;;;;;4939360;29;20027;-87
2022/02/03 06:22:54;;;;;;;22.58;12.48;;;7.30;99.90;;;;;;4920387;29;20591;-88
2022/02/03 06:27:47;;;;;;;30.95;12.95;;;7.20;99.90;;;;;;4939526;29;20028;-87
2022/02/03 06:30:18;;;;;;;100.63;30.63;;;7.20;99.90;;;;;;4925461;29;20032;-87
2022/02/03 06:32:43;;;;;;;51.75;29.88;;;7.20;99.90;;;;;;4938890;29;20488;-87
2022/02/03 06:35:14;;;;;;;34.63;17.70;;;7.20;99.90;;;;;;4937015;29;20114;-86
2022/02/03 06:37:39;;;;;;;26.48;14.13;;;7.20;99.90;;;;;;4936140;29;20128;-88
2022/02/03 06:40:09;;;;;;;17.88;12.57;;;7.50;99.90;;;;;;4940238;29;20131;-89
2022/02/03 06:42:35;;;;;;;45.47;15.73;;;7.20;99.90;;;;;;4939248;28;20047;-87
2022/02/03 06:45:11;;;;;;;27.13;13.90;;;7.20;99.90;;;;;;4939448;29;20461;-88
2022/02/03 06:48:03;;;;;;;17.00;11.80;;;7.20;99.90;;;;;;4938869;29;20444;-87
2022/02/03 06:50:30;;;;;;;13.98;10.68;;;7.70;99.90;;;;;;4938863;29;20043;-88
2022/02/03 06:55:39;;;;;;;13.93;10.55;;;7.20;99.90;;;;;;4939809;29;20109;-89
2022/02/03 07:00:39;;;;;;;14.20;9.93;;;7.20;99.90;;;;;;4938378;29;20047;-88
2022/02/03 07:03:11;;;;;;;16.95;10.68;;;7.30;99.90;;;;;;4939810;29;20031;-87
2022/02/03 07:05:37;;;;;;;20.88;11.55;;;7.20;99.90;;;;;;4924776;29;20388;-87
2022/02/03 07:08:03;;;;;;;18.15;11.70;;;7.50;99.90;;;;;;4949742;29;20028;-87
2022/02/03 07:10:28;;;;;;;27.10;12.63;;;6.90;99.90;;;;;;4936427;29;20511;-87
2022/02/03 07:12:58;;;;;;;36.13;12.43;;;6.80;99.90;;;;;;4939288;29;20036;-87
2022/02/03 07:15:23;;;;;;;34.67;12.18;;;7.00;99.90;;;;;;4941784;29;20465;-87
2022/02/03 07:17:49;;;;;;;29.08;12.70;;;7.20;99.90;;;;;;4943490;29;20122;-87
2022/02/03 07:20:15;;;;;;;25.98;12.63;;;7.00;99.90;;;;;;4937951;29;20059;-87
2022/02/03 07:22:42;;;;;;;32.03;11.70;;;7.40;99.90;;;;;;4935895;29;20035;-87
2022/02/03 07:25:08;;;;;;;38.75;12.90;;;7.70;99.90;;;;;;4939404;29;20028;-87
2022/02/03 07:27:34;;;;;;;35.80;13.50;;;7.50;99.90;;;;;;4938607;29;20118;-87
2022/02/03 07:29:59;;;;;;;27.95;13.57;;;7.70;99.90;;;;;;4937871;29;20126;-87
2022/02/03 07:32:25;;;;;;;35.80;14.13;;;7.50;99.90;;;;;;4938696;29;20064;-87
2022/02/03 07:34:55;;;;;;;24.13;12.40;;;7.60;99.90;;;;;;4934765;29;20031;-87
2022/02/03 07:37:26;;;;;;;26.73;13.23;;;7.60;99.90;;;;;;4945777;29;20070;-87
2022/02/03 07:39:52;;;;;;;20.13;12.52;;;8.00;99.90;;;;;;4939283;29;20043;-93
2022/02/03 07:42:17;;;;;;;21.10;13.23;;;7.60;99.90;;;;;;4938427;28;20051;-87
2022/02/03 07:44:43;;;;;;;19.33;11.52;;;8.20;99.90;;;;;;4938561;29;20106;-87
2022/02/03 07:47:10;;;;;;;20.42;12.20;;;7.70;99.90;;;;;;4923571;29;20059;-87
2022/02/03 07:49:36;;;;;;;19.40;12.43;;;7.90;99.90;;;;;;4936092;29;20488;-88
2022/02/03 07:52:03;;;;;;;22.80;13.73;;;8.00;99.90;;;;;;4938937;29;20067;-85
2022/02/03 07:54:31;;;;;;;21.17;13.23;;;7.90;99.90;;;;;;4938104;29;20023;-86
2022/02/03 07:57:00;;;;;;;21.95;13.70;;;7.80;99.90;;;;;;4938726;29;20542;-88
2022/02/03 07:59:26;;;;;;;20.05;13.15;;;7.90;99.90;;;;;;4938603;29;20051;-87
2022/02/03 08:01:51;;;;;;;22.02;13.45;;;7.90;99.90;;;;;;4934146;29;20043;-87
2022/02/03 08:04:21;;;;;;;23.92;13.95;;;7.90;99.90;;;;;;4945795;29;20031;-87
2022/02/03 08:06:48;;;;;;;24.95;16.25;;;7.60;99.90;;;;;;4938575;29;20043;-87
2022/02/03 08:09:25;;;;;;;26.08;15.52;;;7.90;99.90;;;;;;4938368;29;20024;-86
2022/02/03 08:11:52;;;;;;;25.13;14.77;;;8.00;99.90;;;;;;4938164;29;20031;-87
2022/02/03 08:14:20;;;;;;;24.17;14.65;;;9.00;99.90;;;;;;4934482;29;20059;-87
2022/02/03 08:17:01;;;;;;;24.08;14.98;;;8.70;99.90;;;;;;4948044;29;20028;-86
2022/02/03 08:22:07;;;;;;;24.98;16.25;;;9.10;99.90;;;;;;4939935;28;20035;-87
2022/02/03 08:24:45;;;;;;;24.75;14.68;;;9.90;99.90;;;;;;4942024;29;20032;-87
2022/02/03 08:32:23;;;;;;;20.52;13.40;;;10.00;99.90;;;;;;4941840;29;20027;-87
2022/02/03 08:37:29;;;;;;;20.83;13.73;;;9.70;99.90;;;;;;4949667;29;20484;-87
2022/02/03 08:40:07;;;;;;;18.08;13.13;;;9.80;99.90;;;;;;4941479;29;20024;-86
2022/02/03 08:42:33;;;;;;;24.15;13.07;;;9.40;99.90;;;;;;4925144;29;20044;-87
2022/02/03 08:44:58;;;;;;;21.67;12.55;;;9.20;99.90;;;;;;4941919;29;20024;-87
2022/02/03 08:47:24;;;;;;;18.38;12.18;;;9.00;99.90;;;;;;4927365;29;20420;-87
2022/02/03 08:49:50;;;;;;;16.98;12.32;;;9.30;99.90;;;;;;4937754;29;20038;-87
2022/02/03 08:52:17;;;;;;;17.55;11.77;;;8.50;99.90;;;;;;4941951;29;20504;-87
2022/02/03 08:54:56;;;;;;;19.20;12.65;;;9.20;99.90;;;;;;4941296;29;20115;-87
2022/02/03 08:57:35;;;;;;;16.42;11.68;;;9.10;99.90;;;;;;4940825;29;20090;-87
2022/02/03 09:38:26;;;;;;;13.70;10.27;;;9.90;99.90;;;;;;4895221;29;20033;-87
2022/02/03 09:59:38;;;;;;;19.45;13.02;;;12.50;99.90;;;;;;4940563;29;20531;-87
2022/02/03 10:02:09;;;;;;;15.15;10.40;;;11.10;99.90;;;;;;4937518;29;20138;-88
2022/02/03 10:07:15;;;;;;;15.73;11.55;;;10.20;99.90;;;;;;4939972;29;20031;-87
2022/02/03 10:09:42;;;;;;;16.77;11.75;;;11.20;99.90;;;;;;4925997;29;20035;-87
2022/02/03 10:12:10;;;;;;;18.75;11.90;;;11.60;99.90;;;;;;4939922;29;20028;-86
2022/02/03 10:14:41;;;;;;;13.73;10.32;;;11.50;99.90;;;;;;4940404;29;20031;-87
2022/02/03 10:17:08;;;;;;;14.32;9.68;;;11.80;99.90;;;;;;4937775;29;20042;-87
2022/02/03 10:19:40;;;;;;;14.55;10.07;;;11.70;99.90;;;;;;4938016;29;20473;-87
2022/02/03 10:22:22;;;;;;;11.77;9.05;;;12.40;99.90;;;;;;4939575;29;20122;-87
2022/02/03 10:24:50;;;;;;;10.93;8.13;;;11.80;99.90;;;;;;4939862;29;20035;-87
2022/02/03 10:27:27;;;;;;;11.68;9.02;;;10.50;99.90;;;;;;4939596;29;20028;-86
2022/02/03 10:30:24;;;;;;;10.93;9.05;;;10.50;99.90;;;;;;4923299;29;20404;-87
2022/02/03 10:32:52;;;;;;;9.93;7.65;;;10.70;99.90;;;;;;4947047;29;20122;-87
2022/02/03 10:35:38;;;;;;;9.95;7.65;;;12.60;99.90;;;;;;4938711;29;20032;-87
2022/02/03 10:47:05;;;;;;;16.05;10.02;;;19.30;99.90;;;;;;4949898;29;20054;-87
2022/02/03 11:08:29;;;;;;;11.60;10.15;;;16.90;99.90;;;;;;4937831;29;20055;-86
2022/02/03 11:10:59;;;;;;;11.13;9.27;;;17.50;99.90;;;;;;4935105;29;20023;-87
2022/02/03 11:13:34;;;;;;;10.90;8.88;;;18.70;99.90;;;;;;4921456;29;20516;-87
2022/02/03 11:16:03;;;;;;;11.57;9.40;;;20.30;99.90;;;;;;4940052;29;20047;-88
2022/02/03 11:18:30;;;;;;;16.08;9.27;;;21.40;99.90;;;;;;4939033;29;20134;-87
2022/02/03 11:20:55;;;;;;;14.82;10.90;;;20.30;99.90;;;;;;4938343;29;20111;-85
2022/02/03 11:26:26;;;;;;;13.30;10.20;;;17.60;99.90;;;;;;4919839;29;20035;-87
2022/02/03 11:46:23;;;;;;;11.70;9.75;;;26.60;99.90;;;;;;4939146;29;20575;-88
2022/02/03 11:55:10;;;;;;;13.13;10.07;;;27.70;99.90;;;;;;4873514;29;20029;-89
2022/02/03 12:11:10;;;;;;;11.80;10.55;;;27.90;99.90;;;;;;4845530;29;20384;-89
2022/02/03 12:16:50;;;;;;;11.13;10.02;;;25.30;99.90;;;;;;4842775;29;20052;-89
2022/02/03 12:22:34;;;;;;;11.65;10.45;;;25.20;99.90;;;;;;4857162;29;20050;-88
2022/02/03 12:25:31;;;;;;;10.73;9.63;;;23.60;99.90;;;;;;4856913;29;20110;-88
2022/02/03 12:30:51;;;;;;;14.35;10.07;;;25.60;99.90;;;;;;4864607;29;20497;-88
2022/02/03 12:38:50;;;;;;;9.93;9.02;;;28.40;99.90;;;;;;4933111;29;20089;-88
2022/02/03 12:41:22;;;;;;;11.40;9.98;;;29.10;99.90;;;;;;4932346;29;20050;-88
2022/02/03 12:43:58;;;;;;;10.13;8.70;;;29.60;99.90;;;;;;4932450;29;20054;-88
2022/02/03 12:46:24;;;;;;;9.63;8.65;;;29.90;99.90;;;;;;4930758;29;20437;-88
2022/02/03 12:48:55;;;;;;;9.23;8.32;;;28.50;99.90;;;;;;4931153;29;20040;-88
2022/02/03 12:51:23;;;;;;;8.75;7.95;;;29.80;99.90;;;;;;4930922;29;20091;-88
2022/02/03 12:53:49;;;;;;;10.85;9.00;;;30.00;99.90;;;;;;4930950;29;20066;-87
2022/02/03 12:56:14;;;;;;;8.60;7.25;;;29.30;99.90;;;;;;4934642;29;20054;-86
2022/02/03 12:58:45;;;;;;;8.35;7.55;;;28.20;99.90;;;;;;4935865;29;20032;-87
2022/02/03 13:01:27;;;;;;;8.70;7.90;;;27.40;99.90;;;;;;4938476;29;20040;-87
2022/02/03 13:03:54;;;;;;;8.55;7.75;;;27.90;99.90;;;;;;4936836;29;20445;-86
2022/02/03 13:06:23;;;;;;;9.35;8.35;;;28.20;99.90;;;;;;4938074;29;20082;-86
2022/02/03 13:08:59;;;;;;;10.30;8.20;;;26.00;99.90;;;;;;4939730;29;20023;-86
2022/02/03 13:16:34;;;;;;;10.18;9.13;;;23.00;99.90;;;;;;4950423;29;20035;-86
2022/02/03 13:21:46;;;;;;;9.70;8.70;;;19.50;99.90;;;;;;4941278;29;20568;-86
2022/02/03 13:26:55;;;;;;;11.27;9.05;;;20.10;99.90;;;;;;4941343;29;20119;-86
2022/02/03 13:29:31;;;;;;;9.20;8.30;;;19.90;99.90;;;;;;4940443;29;20422;-86
2022/02/03 13:32:11;;;;;;;9.02;8.13;;;20.90;99.90;;;;;;4905121;29;20024;-86
2022/02/03 13:34:49;;;;;;;11.38;8.40;;;20.90;99.90;;;;;;4938649;29;20032;-86
2022/02/03 13:37:26;;;;;;;8.93;8.02;;;21.00;99.90;;;;;;4923880;29;20090;-86
2022/02/03 13:40:03;;;;;;;9.43;8.27;;;21.10;99.90;;;;;;4940953;29;20302;-85
2022/02/03 13:42:30;;;;;;;11.27;8.52;;;20.40;99.90;;;;;;4940390;28;20059;-85
2022/02/03 13:45:08;;;;;;;9.93;8.13;;;22.30;99.90;;;;;;4940850;29;20519;-86
2022/02/03 13:47:37;;;;;;;9.82;7.90;;;22.10;99.90;;;;;;4940224;29;20070;-85
2022/02/03 13:50:16;;;;;;;20.35;8.68;;;21.20;99.90;;;;;;4938347;29;20027;-85
2022/02/03 14:15:43;;;;;;;8.30;7.45;;;16.50;99.90;;;;;;4940614;29;20090;-85
2022/02/03 14:20:48;;;;;;;11.93;7.47;;;16.30;99.90;;;;;;4839430;29;20144;-85
2022/02/03 14:28:32;;;;;;;8.40;7.03;;;18.80;99.90;;;;;;4840677;29;20061;-85
2022/02/03 14:31:03;;;;;;;12.20;7.45;;;18.10;99.90;;;;;;4839990;29;20093;-85
2022/02/03 14:33:33;;;;;;;10.88;6.60;;;18.40;99.90;;;;;;4840004;29;20086;-85
2022/02/03 14:36:12;;;;;;;8.23;7.00;;;18.30;99.90;;;;;;4839509;29;20029;-86
2022/02/03 14:38:47;;;;;;;8.93;7.68;;;18.10;99.90;;;;;;4839601;29;20046;-85
2022/02/03 14:41:31;;;;;;;8.63;6.90;;;17.70;99.90;;;;;;4824288;29;20042;-86
2022/02/03 14:43:59;;;;;;;8.63;7.43;;;18.10;99.90;;;;;;4825778;29;20546;-85
2022/02/03 14:46:26;;;;;;;10.20;7.78;;;18.50;99.90;;;;;;4840520;29;20034;-85
2022/02/03 14:48:51;;;;;;;14.00;8.07;;;18.00;99.90;;;;;;4839763;29;20073;-85
2022/02/03 14:51:22;;;;;;;11.75;8.13;;;18.50;99.90;;;;;;4824118;29;20065;-85
2022/02/03 14:53:56;;;;;;;9.63;7.55;;;18.40;99.90;;;;;;4839689;29;20030;-86
2022/02/03 14:59:08;;;;;;;12.05;8.23;;;17.50;99.90;;;;;;4924440;29;20135;-85
2022/02/03 15:01:34;;;;;;;12.18;8.73;;;17.30;99.90;;;;;;4937366;29;20036;-86
2022/02/03 15:04:05;;;;;;;10.10;8.90;;;16.60;99.90;;;;;;4932859;29;20038;-84
2022/02/03 15:06:57;;;;;;;9.82;8.38;;;16.20;99.90;;;;;;4920944;29;20039;-88
2022/02/03 15:09:46;;;;;;;11.20;8.18;;;15.70;99.90;;;;;;4930895;29;20040;-86
2022/02/03 15:14:50;;;;;;;10.60;7.95;;;15.00;99.90;;;;;;4932663;29;20027;-86
2022/02/03 15:17:16;;;;;;;11.10;7.53;;;14.70;99.90;;;;;;4933491;29;20039;-85
2022/02/03 15:19:42;;;;;;;11.20;6.60;;;14.30;99.90;;;;;;4933483;29;20040;-86
2022/02/03 15:22:07;;;;;;;11.05;7.53;;;14.00;99.90;;;;;;4934798;29;20123;-86
2022/02/03 15:24:33;;;;;;;11.43;7.05;;;14.00;99.90;;;;;;4931259;29;20502;-86
2022/02/03 15:27:00;;;;;;;7.03;6.30;;;13.90;99.90;;;;;;4931487;29;20031;-86
2022/02/03 15:29:28;;;;;;;8.20;6.32;;;14.10;99.90;;;;;;4932917;29;20020;-85
2022/02/03 15:31:54;;;;;;;8.20;6.65;;;14.30;99.90;;;;;;4932140;29;20089;-85
2022/02/03 15:34:21;;;;;;;8.93;7.18;;;14.40;99.90;;;;;;4935484;29;20122;-85
2022/02/03 15:36:52;;;;;;;10.55;6.50;;;14.50;99.90;;;;;;4931493;29;20412;-86
2022/02/03 15:39:23;;;;;;;10.05;6.47;;;14.60;99.90;;;;;;4932844;29;20059;-86
2022/02/03 15:41:51;;;;;;;11.27;6.53;;;15.00;99.90;;;;;;4930801;29;20111;-85
2022/02/03 15:44:17;;;;;;;13.80;5.78;;;15.00;99.90;;;;;;4932919;29;20020;-85
2022/02/03 15:46:58;;;;;;;8.88;6.53;;;15.00;99.90;;;;;;4932891;29;20047;-85
2022/02/03 15:58:16;;;;;;;10.85;4.68;;;14.50;99.90;;;;;;4938015;29;20078;-85
2022/02/03 16:03:18;;;;;;;6.32;4.07;;;14.40;99.90;;;;;;4938208;29;20389;-85
2022/02/03 16:16:51;;;;;;;5.00;3.60;;;13.80;99.90;;;;;;4937044;29;20063;-85
2022/02/03 16:19:18;;;;;;;4.20;3.58;;;13.70;99.90;;;;;;4938474;29;20056;-85
2022/02/03 16:22:08;;;;;;;7.18;3.78;;;13.60;99.90;;;;;;4937875;29;20098;-85
2022/02/03 16:24:51;;;;;;;5.50;3.72;;;13.80;99.90;;;;;;4937175;29;20102;-85
2022/02/03 16:50:21;;;;;;;4.43;3.70;;;13.00;99.90;;;;;;4940044;28;20579;-86
2022/02/03 16:52:24;;;;;;;10.32;3.42;;;12.90;99.90;;;;;;4942367;29;20102;-85
2022/02/03 16:54:51;;;;;;;4.55;3.63;;;12.70;99.90;;;;;;4941663;29;20015;-85
2022/02/03 16:57:21;;;;;;;5.40;3.03;;;12.50;99.90;;;;;;4941568;29;20118;-85
2022/02/03 16:59:57;;;;;;;4.68;3.40;;;12.50;99.90;;;;;;4941613;29;20104;-85
2022/02/03 17:02:24;;;;;;;6.63;3.65;;;12.50;99.90;;;;;;4941733;29;20039;-86
2022/02/03 17:04:51;;;;;;;9.13;3.90;;;12.60;99.90;;;;;;4937037;29;20146;-86
2022/02/03 17:07:17;;;;;;;10.40;4.22;;;12.60;99.90;;;;;;4942209;29;20063;-85
2022/02/03 17:09:43;;;;;;;4.95;3.45;;;12.60;99.90;;;;;;4940687;29;20023;-85
2022/02/03 17:12:09;;;;;;;4.80;3.30;;;12.60;99.90;;;;;;4941201;29;20032;-85
2022/02/03 17:14:34;;;;;;;3.30;3.00;;;12.60;99.90;;;;;;4940930;29;20483;-85
2022/02/03 17:17:00;;;;;;;5.15;3.03;;;12.50;99.90;;;;;;4938188;29;20028;-85
2022/02/03 17:19:26;;;;;;;4.15;2.80;;;12.50;99.90;;;;;;4940142;29;20110;-85
2022/02/03 17:21:51;;;;;;;5.20;2.90;;;12.50;99.90;;;;;;4941078;29;20103;-85
2022/02/03 17:24:17;;;;;;;5.15;2.53;;;12.50;99.90;;;;;;4923606;29;20050;-85
2022/02/03 17:29:21;;;;;;;2.80;2.08;;;12.60;99.90;;;;;;4939428;29;20019;-85
2022/02/03 17:54:16;;;;;;;3.40;2.53;;;12.50;99.90;;;;;;4898820;29;20088;-85
2022/02/03 18:36:32;;;;;;;2.67;1.90;;;12.70;99.90;;;;;;4939742;29;20039;-85
2022/02/03 18:50:17;;;;;;;1.92;1.50;;;12.60;99.90;;;;;;4919596;29;20400;-84
2022/02/03 18:55:56;;;;;;;3.08;1.52;;;12.80;99.90;;;;;;4932282;29;20075;-85
2022/02/03 18:58:40;;;;;;;3.20;1.42;;;12.90;99.90;;;;;;4930845;29;20050;-82
2022/02/03 20:08:18;;;;;;;3.30;2.85;;;12.50;99.90;;;;;;4942743;29;20039;-88
2022/02/03 20:10:47;;;;;;;3.10;2.80;;;12.50;99.90;;;;;;4950574;29;20087;-89
2022/02/03 20:13:13;;;;;;;3.55;2.33;;;12.50;99.90;;;;;;4934395;29;20056;-88
2022/02/03 20:15:40;;;;;;;2.53;1.60;;;12.40;99.90;;;;;;4937785;29;20032;-88
2022/02/03 20:18:11;;;;;;;2.10;1.70;;;12.40;99.90;;;;;;4947260;29;20073;-91
2022/02/03 20:20:37;;;;;;;2.25;1.70;;;12.60;99.90;;;;;;4941252;29;20388;-91
2022/02/03 20:23:08;;;;;;;3.20;1.90;;;12.40;99.90;;;;;;4953609;29;20174;-91
2022/02/03 20:25:35;;;;;;;3.15;1.67;;;12.40;99.90;;;;;;4957019;29;20031;-89
2022/02/03 20:28:08;;;;;;;4.13;1.60;;;12.30;99.90;;;;;;4942751;29;20059;-89
2022/02/03 20:30:34;;;;;;;2.75;1.60;;;12.30;99.90;;;;;;4941967;29;20511;-89
2022/02/03 20:33:00;;;;;;;2.83;1.70;;;12.30;99.90;;;;;;4941855;29;20024;-90
2022/02/03 20:35:26;;;;;;;2.80;2.30;;;12.30;99.90;;;;;;4942011;29;20034;-90
2022/02/03 20:37:52;;;;;;;4.07;2.42;;;12.20;99.90;;;;;;4922125;29;20027;-93
2022/02/03 20:40:18;;;;;;;2.60;2.40;;;12.10;99.90;;;;;;4943726;29;20028;-91
2022/02/03 20:42:44;;;;;;;3.58;2.40;;;12.10;99.90;;;;;;4942252;28;20056;-91
2022/02/03 20:45:11;;;;;;;5.32;2.45;;;11.90;99.90;;;;;;4925953;29;20549;-89
2022/02/03 20:47:36;;;;;;;4.32;2.60;;;11.90;99.90;;;;;;4928809;29;20027;-92
2022/02/03 20:50:06;;;;;;;3.13;2.50;;;11.90;99.90;;;;;;4953137;29;20032;-88
2022/02/03 20:52:32;;;;;;;3.35;2.30;;;11.80;99.90;;;;;;4940493;29;20087;-89
2022/02/03 20:54:57;;;;;;;3.83;2.47;;;11.80;99.90;;;;;;4954608;29;20464;-92
2022/02/03 20:57:25;;;;;;;3.75;2.30;;;12.00;99.90;;;;;;4928661;29;20032;-91
2022/02/03 21:02:26;;;;;;;4.53;3.80;;;11.80;99.90;;;;;;4940375;29;20035;-89
2022/02/03 21:05:05;;;;;;;4.45;2.38;;;11.80;99.90;;;;;;4938031;29;20500;-88
2022/02/03 21:07:35;;;;;;;4.78;3.90;;;11.80;99.90;;;;;;4952892;29;20496;-88
2022/02/03 21:10:05;;;;;;;4.15;3.10;;;11.80;99.90;;;;;;4942123;29;20040;-90
2022/02/03 21:12:31;;;;;;;5.68;4.03;;;11.80;99.90;;;;;;4941639;29;20028;-89
2022/02/03 21:14:59;;;;;;;7.38;4.03;;;11.70;99.90;;;;;;4941893;29;20038;-91
2022/02/03 21:17:28;;;;;;;4.05;2.85;;;11.60;99.90;;;;;;4941239;29;20019;-90
2022/02/03 21:19:54;;;;;;;5.05;2.45;;;11.80;99.90;;;;;;4922673;29;20048;-90
2022/02/03 21:22:23;;;;;;;4.28;3.22;;;11.50;99.90;;;;;;4943220;29;20086;-92
2022/02/03 21:24:49;;;;;;;3.95;2.90;;;11.40;99.90;;;;;;4941789;29;20112;-92
2022/02/03 21:27:19;;;;;;;5.03;3.60;;;11.30;99.90;;;;;;4925326;29;20479;-89
2022/02/03 21:29:45;;;;;;;3.72;3.08;;;11.50;99.90;;;;;;4940470;29;20027;-88
2022/02/03 21:32:11;;;;;;;5.20;3.67;;;11.60;99.90;;;;;;4938918;29;20055;-87
2022/02/03 21:34:36;;;;;;;5.32;3.13;;;11.20;99.90;;;;;;4939608;29;20035;-88
2022/02/03 21:37:02;;;;;;;4.85;3.33;;;11.60;99.90;;;;;;4941822;29;20028;-91
2022/02/03 21:39:28;;;;;;;7.05;4.60;;;11.10;99.90;;;;;;4928628;29;20540;-90
2022/02/03 21:41:54;;;;;;;5.05;3.90;;;11.50;99.90;;;;;;4932915;29;20439;-86
2022/02/03 21:44:22;;;;;;;6.10;4.13;;;10.90;99.90;;;;;;4939896;29;20058;-86
2022/02/03 21:46:48;;;;;;;5.38;4.65;;;10.80;99.90;;;;;;4936430;29;20039;-85
2022/02/03 21:49:15;;;;;;;6.65;4.90;;;10.70;99.90;;;;;;4941236;29;20587;-85
2022/02/03 21:51:44;;;;;;;7.97;5.55;;;10.60;99.90;;;;;;4940200;29;20102;-86
2022/02/03 21:54:11;;;;;;;7.90;5.78;;;10.50;99.90;;;;;;4940218;29;20027;-86
2022/02/03 21:56:37;;;;;;;8.40;6.22;;;10.50;99.90;;;;;;4940723;29;20035;-86
2022/02/03 21:59:07;;;;;;;10.10;6.20;;;10.40;99.90;;;;;;4937273;29;20102;-87
2022/02/03 22:01:37;;;;;;;10.07;6.88;;;10.40;99.90;;;;;;4939066;29;20051;-86
2022/02/03 22:04:03;;;;;;;8.85;6.28;;;10.50;99.90;;;;;;4941312;29;20104;-87
2022/02/03 22:06:28;;;;;;;10.48;7.05;;;10.50;99.90;;;;;;4940724;29;20543;-87
2022/02/03 22:08:54;;;;;;;9.82;7.43;;;10.50;99.90;;;;;;4940390;29;20024;-87
2022/02/03 22:11:19;;;;;;;8.63;7.25;;;10.80;99.90;;;;;;4925225;29;20126;-87
2022/02/03 22:13:45;;;;;;;9.80;7.22;;;10.30;99.90;;;;;;4937171;29;20024;-86
2022/02/03 22:16:15;;;;;;;11.43;8.60;;;10.40;99.90;;;;;;4941302;29;20039;-86
2022/02/03 22:18:41;;;;;;;12.63;8.57;;;10.30;99.90;;;;;;4940075;29;20032;-87
2022/02/03 22:22:03;;;;;;;11.35;8.23;;;10.20;99.90;;;;;;4940504;29;20040;-87
2022/02/03 22:29:37;;;;;;;12.95;8.77;;;10.10;99.90;;;;;;4936576;29;20492;-87
2022/02/03 22:41:03;;;;;;;13.48;9.90;;;10.00;99.90;;;;;;4939943;29;20039;-87
2022/02/03 22:45:58;;;;;;;12.20;10.65;;;9.80;99.90;;;;;;4940163;29;20047;-87
2022/02/03 22:48:27;;;;;;;14.55;10.93;;;9.90;99.90;;;;;;4939991;29;20039;-87
2022/02/03 22:50:55;;;;;;;14.68;11.95;;;9.90;99.90;;;;;;4939743;29;20031;-87
2022/02/03 22:53:21;;;;;;;16.92;11.25;;;10.00;99.90;;;;;;4938708;29;20030;-87
2022/02/03 22:55:47;;;;;;;14.07;11.43;;;9.90;99.90;;;;;;4936672;29;20043;-87
2022/02/03 23:01:02;;;;;;;15.00;12.20;;;9.70;99.90;;;;;;4939881;29;20040;-86
2022/02/03 23:03:30;;;;;;;14.82;11.63;;;9.60;99.90;;;;;;4939527;29;20032;-87
2022/02/03 23:05:56;;;;;;;14.98;12.10;;;9.50;99.90;;;;;;4939564;29;20035;-87
2022/02/03 23:08:30;;;;;;;16.50;12.75;;;9.50;99.90;;;;;;4938767;29;20504;-86
2022/02/03 23:16:21;;;;;;;15.38;13.43;;;9.20;99.90;;;;;;4937924;29;20032;-87
2022/02/03 23:23:39;;;;;;;17.80;13.20;;;8.80;99.90;;;;;;4939329;29;20467;-87
2022/02/03 23:26:07;;;;;;;15.68;12.95;;;8.70;99.90;;;;;;4936102;29;20027;-87
2022/02/03 23:28:34;;;;;;;17.48;13.52;;;8.60;99.90;;;;;;4937194;29;20066;-87
2022/02/03 23:31:00;;;;;;;15.02;13.35;;;8.50;99.90;;;;;;4939729;29;20031;-87
2022/02/03 23:33:29;;;;;;;17.30;13.38;;;8.40;99.90;;;;;;4939210;29;20042;-87
2022/02/03 23:35:54;;;;;;;19.35;13.80;;;8.40;99.90;;;;;;4938635;29;20031;-87
